Time;durP1;ratioP1;P1;durP2;ratioP2;P2;SDS_P1;SDS_P2;PMS_P1;PMS_P2;Temp;Humidity;BMP_temperature;BMP_pressure;BME280_temperature;BME280_humidity;BME280_pressure;Samples;Min_cycle;Max_cycle;Signal;HPM_P1;HPM_P2
2023/06/16 00:00:19;;;;;;;9.40;8.50;;;;;;;11.86;84.04;100391.41;102362;280;96783;-58
2023/06/16 00:03:15;;;;;;;;;;;;;;;11.82;84.31;100389.35;102394;280;97356;-58
2023/06/16 00:05:53;;;;;;;10.00;9.00;;;;;;;11.74;84.21;100390.54;102467;281;120933;-56
2023/06/16 00:08:33;;;;;;;11.60;9.30;;;;;;;11.69;84.28;100386.60;102332;281;104722;-56
2023/06/16 00:11:14;;;;;;;10.40;9.40;;;;;;;11.65;84.32;100386.13;102323;280;115051;-56
2023/06/16 00:13:49;;;;;;;10.10;9.00;;;;;;;11.61;84.50;100378.70;102333;280;95513;-56
2023/06/16 00:16:36;;;;;;;11.00;9.40;;;;;;;11.58;84.52;100379.27;102334;280;96862;-56
2023/06/16 00:19:15;;;;;;;9.50;8.60;;;;;;;11.56;84.53;100380.30;102316;280;120268;-55
2023/06/16 00:21:59;;;;;;;12.20;9.40;;;;;;;11.55;84.79;100382.41;102318;280;105601;-56
2023/06/16 00:24:41;;;;;;;10.50;9.20;;;;;;;11.55;85.03;100383.02;102247;280;114022;-57
2023/06/16 00:27:18;;;;;;;11.10;8.90;;;;;;;11.54;84.98;100383.44;102321;281;96523;-56
2023/06/16 00:30:05;;;;;;;12.30;9.80;;;;;;;11.56;84.97;100381.92;102334;279;96729;-56
2023/06/16 00:32:45;;;;;;;12.10;9.50;;;;;;;11.53;85.01;100378.59;102375;280;122118;-56
2023/06/16 00:35:20;;;;;;;11.10;9.90;;;;;;;11.52;85.05;100381.05;102389;280;105283;-55
2023/06/16 00:37:52;;;;;;;12.20;9.70;;;;;;;11.51;84.98;100379.16;102379;280;114662;-56
2023/06/16 00:40:28;;;;;;;10.80;9.30;;;;;;;11.47;84.93;100377.17;102429;280;97680;-59
2023/06/16 00:43:07;;;;;;;11.00;9.70;;;;;;;11.45;85.05;100377.79;102420;280;98143;-58
2023/06/16 00:45:41;;;;;;;10.70;9.50;;;;;;;11.46;85.05;100376.38;102451;280;120763;-56
2023/06/16 00:48:15;;;;;;;11.10;9.70;;;;;;;11.45;84.97;100375.61;102509;280;103367;-56
2023/06/16 00:50:57;;;;;;;11.20;9.20;;;;;;;11.45;85.03;100372.96;102487;280;113663;-57
2023/06/16 00:53:31;;;;;;;9.40;8.30;;;;;;;11.41;85.25;100375.09;102388;280;96870;-57
2023/06/16 00:56:16;;;;;;;13.10;8.60;;;;;;;11.38;85.20;100375.60;102468;280;98028;-57
2023/06/16 00:58:56;;;;;;;10.90;9.60;;;;;;;11.34;85.23;100380.27;102388;280;119956;-57
2023/06/16 01:01:38;;;;;;;9.80;8.50;;;;;;;11.30;85.34;100378.48;102425;280;105892;-59
2023/06/16 01:04:12;;;;;;;11.80;8.80;;;;;;;11.32;85.42;100375.17;102413;280;113389;-59
2023/06/16 01:07:02;;;;;;;12.00;9.60;;;;;;;11.32;85.48;100372.47;102359;280;96073;-59
2023/06/16 01:09:46;;;;;;;10.40;9.10;;;;;;;11.29;85.53;100368.99;102368;280;97103;-60
2023/06/16 01:12:33;;;;;;;10.30;9.20;;;;;;;11.25;85.49;100371.63;102403;280;120861;-59
2023/06/16 01:15:10;;;;;;;10.70;9.10;;;;;;;11.22;85.67;100370.19;102373;280;104471;-59
2023/06/16 01:17:50;;;;;;;11.10;9.70;;;;;;;11.22;85.92;100374.02;102354;280;112277;-59
2023/06/16 01:20:38;;;;;;;10.20;9.10;;;;;;;11.25;85.84;100369.64;102437;280;96332;-56
2023/06/16 01:23:25;;;;;;;10.40;9.30;;;;;;;11.27;85.93;100374.72;102399;280;98075;-56
2023/06/16 01:26:02;;;;;;;12.80;10.40;;;;;;;11.24;85.94;100371.24;102429;280;121885;-57
2023/06/16 01:28:34;;;;;;;10.40;9.30;;;;;;;11.18;86.20;100367.81;102282;280;104849;-56
2023/06/16 01:31:08;;;;;;;11.60;10.00;;;;;;;11.12;86.12;100368.80;102485;280;114578;-57
2023/06/16 01:33:48;;;;;;;12.50;9.90;;;;;;;11.07;86.19;100373.00;102459;280;95759;-57
2023/06/16 01:36:23;;;;;;;11.00;9.90;;;;;;;11.07;86.33;100366.55;102483;280;97141;-56
2023/06/16 01:39:05;;;;;;;11.20;10.00;;;;;;;11.06;86.11;100366.70;102475;280;120277;-57
2023/06/16 01:41:40;;;;;;;11.00;9.80;;;;;;;11.01;86.21;100364.08;102473;280;106494;-59
2023/06/16 01:44:18;;;;;;;11.00;9.80;;;;;;;10.95;86.15;100367.55;102417;280;114002;-60
2023/06/16 01:46:50;;;;;;;11.40;9.40;;;;;;;10.90;86.13;100367.86;102401;280;96361;-57
2023/06/16 01:49:32;;;;;;;12.20;11.10;;;;;;;10.85;86.20;100367.73;102383;280;96911;-57
2023/06/16 01:52:06;;;;;;;12.20;10.80;;;;;;;10.85;86.33;100368.19;102378;280;120747;-56
2023/06/16 01:54:48;;;;;;;11.40;10.30;;;;;;;10.88;86.68;100367.92;102371;280;104382;-56
2023/06/16 01:57:23;;;;;;;11.40;10.20;;;;;;;10.89;86.54;100373.15;102397;280;113872;-57
2023/06/16 02:00:00;;;;;;;12.80;10.60;;;;;;;10.89;86.60;100369.46;102353;280;96347;-56
2023/06/16 02:02:46;;;;;;;11.50;10.30;;;;;;;10.83;86.62;100370.75;102423;280;98012;-57
2023/06/16 02:05:21;;;;;;;11.90;10.70;;;;;;;10.79;86.63;100368.18;102410;269;120191;-57
2023/06/16 02:07:57;;;;;;;11.80;10.50;;;;;;;10.76;86.78;100366.02;102432;280;104586;-57
2023/06/16 02:10:40;;;;;;;12.40;11.10;;;;;;;10.75;86.89;100368.13;102407;280;114275;-58
2023/06/16 02:13:15;;;;;;;;;;;;;;;10.73;86.85;100369.84;102397;280;94513;-60
2023/06/16 02:15:48;;;;;;;12.80;11.10;;;;;;;10.72;87.06;100373.20;102455;280;97657;-56
2023/06/16 02:18:32;;;;;;;13.00;11.70;;;;;;;10.74;87.21;100373.30;102431;280;118424;-56
2023/06/16 02:21:10;;;;;;;13.00;11.30;;;;;;;10.77;87.36;100369.34;102423;280;104558;-59
2023/06/16 02:23:47;;;;;;;13.60;12.20;;;;;;;10.82;87.41;100369.64;102387;280;114887;-59
2023/06/16 02:26:24;;;;;;;14.20;12.70;;;;;;;10.85;87.18;100369.47;102411;280;95929;-56
2023/06/16 02:29:04;;;;;;;12.70;11.50;;;;;;;10.85;87.23;100369.98;102370;280;97383;-56
2023/06/16 02:31:46;;;;;;;12.80;11.50;;;;;;;10.83;87.09;100369.79;102387;280;120806;-56
2023/06/16 02:34:21;;;;;;;13.50;12.10;;;;;;;10.81;87.13;100371.72;102404;280;104593;-57
2023/06/16 02:36:53;;;;;;;13.40;12.10;;;;;;;10.78;87.19;100369.61;102416;280;113442;-56
2023/06/16 02:39:33;;;;;;;12.50;11.30;;;;;;;10.78;87.04;100375.72;102376;280;97026;-56
2023/06/16 02:42:08;;;;;;;12.00;10.80;;;;;;;10.77;87.15;100378.57;102384;280;96816;-56
2023/06/16 02:44:40;;;;;;;12.30;10.90;;;;;;;10.77;87.11;100377.13;102384;280;121218;-55
2023/06/16 02:47:12;;;;;;;11.50;10.50;;;;;;;10.80;87.29;100378.44;102415;280;106719;-59
2023/06/16 02:49:51;;;;;;;11.50;10.40;;;;;;;10.83;87.28;100377.25;102357;280;113807;-58
2023/06/16 02:52:23;;;;;;;11.80;10.80;;;;;;;10.82;87.36;100372.61;102449;280;96129;-57
2023/06/16 02:55:05;;;;;;;12.90;11.30;;;;;;;10.85;87.41;100374.47;102491;280;97595;-55
2023/06/16 02:57:47;;;;;;;12.70;11.30;;;;;;;10.90;87.44;100374.15;102460;280;119808;-56
2023/06/16 03:00:20;;;;;;;11.90;10.80;;;;;;;10.95;87.53;100374.74;102435;280;103700;-58
2023/06/16 03:02:58;;;;;;;12.90;11.70;;;;;;;11.00;87.42;100372.00;102409;280;113173;-58
2023/06/16 03:05:34;;;;;;;12.20;11.00;;;;;;;11.06;87.60;100372.89;102378;280;96806;-58
2023/06/16 03:08:06;;;;;;;12.90;11.70;;;;;;;11.16;87.67;100376.81;102376;280;97915;-58
2023/06/16 03:10:37;;;;;;;14.20;12.50;;;;;;;11.27;87.56;100372.52;102426;280;121726;-57
2023/06/16 03:13:12;;;;;;;13.10;11.80;;;;;;;11.38;87.70;100373.08;102367;280;106158;-56
2023/06/16 03:15:56;;;;;;;13.00;11.70;;;;;;;11.47;87.68;100373.11;102378;280;114767;-59
2023/06/16 03:18:34;;;;;;;13.20;11.90;;;;;;;11.53;87.79;100374.36;101836;280;608285;-58
2023/06/16 03:21:10;;;;;;;12.50;11.20;;;;;;;11.61;87.76;100378.21;102389;280;98657;-59
2023/06/16 03:23:50;;;;;;;12.70;11.40;;;;;;;11.74;87.64;100380.30;102396;280;121003;-59
2023/06/16 03:26:25;;;;;;;13.20;11.90;;;;;;;11.93;87.64;100377.55;102365;280;105682;-56
2023/06/16 03:28:56;;;;;;;14.40;11.90;;;;;;;12.69;87.58;100376.52;102429;280;114166;-56
2023/06/16 03:31:32;;;;;;;13.20;11.90;;;;;;;13.66;86.09;100373.70;102435;269;95470;-58
2023/06/16 03:34:10;;;;;;;12.60;11.50;;;;;;;13.98;85.70;100377.05;102427;280;97119;-59
2023/06/16 03:36:52;;;;;;;12.80;11.50;;;;;;;14.92;84.64;100375.50;102430;280;120683;-56
2023/06/16 03:39:29;;;;;;;12.00;10.90;;;;;;;16.35;82.92;100373.20;102456;280;105952;-56
2023/06/16 03:42:03;;;;;;;12.20;11.20;;;;;;;17.62;81.45;100375.53;102476;280;113759;-57
2023/06/16 03:44:45;;;;;;;12.20;11.00;;;;;;;18.67;80.00;100368.83;102455;280;94611;-56
2023/06/16 03:47:26;;;;;;;11.30;10.10;;;;;;;19.58;78.31;100372.84;102428;280;97741;-58
2023/06/16 03:50:05;;;;;;;10.50;9.60;;;;;;;20.44;76.25;100371.88;102426;280;121048;-59
2023/06/16 03:52:45;;;;;;;12.30;10.00;;;;;;;21.08;74.58;100377.55;102419;280;105111;-58
2023/06/16 03:55:20;;;;;;;10.90;9.90;;;;;;;21.73;73.18;100374.88;102410;280;113733;-59
2023/06/16 03:57:56;;;;;;;9.90;9.00;;;;;;;22.36;71.61;100374.13;102231;281;93588;-58
2023/06/16 04:00:37;;;;;;;10.00;9.20;;;;;;;23.03;69.37;100372.71;102417;280;98133;-56
2023/06/16 04:03:25;;;;;;;10.20;9.10;;;;;;;23.62;67.78;100371.17;102352;280;120412;-56
2023/06/16 04:06:01;;;;;;;10.00;9.10;;;;;;;24.20;65.75;100370.09;102439;280;104584;-57
2023/06/16 04:08:37;;;;;;;9.50;8.60;;;;;;;24.75;64.24;100367.89;102258;280;117178;-57
2023/06/16 04:11:15;;;;;;;10.30;8.60;;;;;;;25.29;63.10;100363.84;102408;280;95117;-56
2023/06/16 04:13:55;;;;;;;9.10;8.00;;;;;;;25.86;62.12;100362.35;102439;280;97965;-56
2023/06/16 04:16:30;;;;;;;8.80;8.10;;;;;;;26.41;60.76;100363.79;102415;280;119135;-56
2023/06/16 04:19:06;;;;;;;8.70;8.00;;;;;;;26.85;59.50;100358.35;102424;280;105684;-56
2023/06/16 04:21:45;;;;;;;8.30;7.30;;;;;;;27.32;57.75;100358.39;102469;280;115256;-60
2023/06/16 04:24:19;;;;;;;9.70;8.50;;;;;;;27.01;56.96;100352.23;102412;280;94728;-58
2023/06/16 04:26:58;;;;;;;9.00;8.20;;;;;;;25.96;56.49;100359.48;102456;280;98535;-57
2023/06/16 04:29:41;;;;;;;8.40;7.70;;;;;;;25.30;56.73;100359.02;102413;280;120417;-56
2023/06/16 04:32:19;;;;;;;8.10;7.30;;;;;;;24.82;56.89;100358.17;102255;280;107422;-56
2023/06/16 04:35:03;;;;;;;8.20;7.50;;;;;;;24.10;56.87;100361.33;102448;280;112793;-57
2023/06/16 04:37:40;;;;;;;9.20;8.20;;;;;;;23.72;57.31;100363.95;102438;280;92905;-57
2023/06/16 04:40:22;;;;;;;9.40;8.50;;;;;;;23.31;57.81;100358.61;102456;280;98672;-58
2023/06/16 04:43:01;;;;;;;10.50;9.30;;;;;;;22.52;58.56;100359.80;102402;280;121217;-59
2023/06/16 04:45:41;;;;;;;10.20;9.30;;;;;;;22.40;58.79;100363.58;102408;280;104874;-55
2023/06/16 04:48:15;;;;;;;10.60;9.70;;;;;;;23.47;58.63;100359.28;102363;280;113891;-55
2023/06/16 04:50:48;;;;;;;11.10;10.20;;;;;;;25.16;57.75;100352.49;102377;280;93174;-56
2023/06/16 04:53:27;;;;;;;11.70;10.60;;;;;;;26.63;56.18;100348.38;102412;280;97985;-57
2023/06/16 04:56:03;;;;;;;12.90;11.70;;;;;;;27.63;54.53;100345.54;102393;280;120573;-60
2023/06/16 04:58:42;;;;;;;13.40;12.20;;;;;;;28.23;53.38;100341.56;102397;280;105404;-60
2023/06/16 05:01:17;;;;;;;14.70;13.50;;;;;;;29.09;52.10;100341.56;102398;280;114438;-60
2023/06/16 05:03:55;;;;;;;14.40;13.10;;;;;;;29.77;50.92;100349.14;102377;280;94606;-59
2023/06/16 05:06:30;;;;;;;13.50;12.20;;;;;;;30.40;49.73;100343.44;102462;280;97730;-60
2023/06/16 05:09:05;;;;;;;13.80;11.90;;;;;;;30.80;47.94;100345.13;102438;280;120739;-60
2023/06/16 05:11:42;;;;;;;11.40;10.30;;;;;;;31.11;47.23;100334.92;102471;280;105968;-56
2023/06/16 05:14:17;;;;;;;11.70;10.50;;;;;;;31.53;45.95;100336.10;102445;280;113506;-57
2023/06/16 05:16:56;;;;;;;11.90;10.80;;;;;;;31.61;45.78;100340.55;102447;280;95099;-59
2023/06/16 05:19:39;;;;;;;11.30;10.40;;;;;;;31.93;44.66;100342.59;102282;281;97745;-58
2023/06/16 05:22:23;;;;;;;12.90;11.70;;;;;;;32.27;43.42;100343.94;102400;280;120056;-60
2023/06/16 05:24:57;;;;;;;11.80;10.90;;;;;;;32.00;42.93;100344.48;102481;280;105931;-60
2023/06/16 05:27:30;;;;;;;11.20;10.10;;;;;;;32.19;42.34;100345.06;102369;280;114853;-59
2023/06/16 05:30:06;;;;;;;11.30;10.40;;;;;;;32.45;42.09;100345.73;102390;280;94332;-59
2023/06/16 05:32:37;;;;;;;11.30;10.30;;;;;;;32.59;41.77;100344.99;102395;280;98299;-59
2023/06/16 05:35:20;;;;;;;10.60;9.70;;;;;;;32.84;41.51;100344.98;102385;280;120242;-57
2023/06/16 05:38:01;;;;;;;11.30;10.30;;;;;;;32.99;40.74;100345.52;102395;280;105034;-57
2023/06/16 05:40:40;;;;;;;11.30;10.30;;;;;;;32.73;40.06;100341.67;102411;280;114724;-56
2023/06/16 05:43:22;;;;;;;10.10;9.20;;;;;;;33.03;39.20;100341.38;102392;280;93123;-57
2023/06/16 05:46:02;;;;;;;10.40;9.40;;;;;;;33.31;38.60;100339.77;102366;280;98094;-59
2023/06/16 05:48:33;;;;;;;10.60;9.50;;;;;;;33.64;38.43;100346.45;102365;280;120603;-59
2023/06/16 05:51:05;;;;;;;10.60;9.60;;;;;;;33.84;37.70;100351.45;102416;280;104750;-59
2023/06/16 05:53:40;;;;;;;9.50;8.60;;;;;;;34.26;37.73;100354.64;102373;280;114166;-61
2023/06/16 05:56:24;;;;;;;9.60;8.50;;;;;;;34.75;36.99;100351.90;102436;280;94712;-59
2023/06/16 05:59:09;;;;;;;8.80;8.00;;;;;;;34.91;36.34;100350.27;102453;280;97904;-59
2023/06/16 06:01:43;;;;;;;8.90;8.10;;;;;;;34.45;35.56;100350.42;102287;280;121058;-56
2023/06/16 06:04:27;;;;;;;8.70;7.90;;;;;;;34.53;35.39;100346.51;102386;280;105747;-58
2023/06/16 06:07:00;;;;;;;7.30;6.60;;;;;;;34.37;35.60;100340.52;102476;280;114357;-60
2023/06/16 06:09:33;;;;;;;6.80;6.20;;;;;;;34.54;35.32;100345.27;102417;280;94004;-59
2023/06/16 06:12:11;;;;;;;5.90;5.30;;;;;;;34.73;34.52;100342.70;102427;280;96399;-57
2023/06/16 06:14:44;;;;;;;6.00;5.30;;;;;;;35.14;33.71;100341.12;102410;280;119591;-57
2023/06/16 06:17:24;;;;;;;6.60;6.10;;;;;;;35.18;33.26;100342.60;102387;280;105100;-57
2023/06/16 06:20:03;;;;;;;5.20;4.80;;;;;;;35.01;33.27;100343.77;102382;280;113918;-57
2023/06/16 06:22:47;;;;;;;5.90;5.30;;;;;;;35.36;32.12;100342.45;102373;280;93373;-57
2023/06/16 06:25:20;;;;;;;6.70;4.80;;;;;;;35.26;32.68;100347.46;102424;280;97834;-57
2023/06/16 06:27:57;;;;;;;6.30;5.80;;;;;;;35.01;31.85;100346.89;102354;280;120554;-57
2023/06/16 06:30:30;;;;;;;6.30;5.50;;;;;;;34.79;31.56;100338.42;102404;280;105472;-56
2023/06/16 06:33:11;;;;;;;5.40;4.90;;;;;;;34.84;31.95;100338.41;102403;280;114070;-56
2023/06/16 06:35:50;;;;;;;5.40;4.90;;;;;;;35.15;31.68;100339.02;102436;280;94348;-57
2023/06/16 06:38:36;;;;;;;5.30;4.80;;;;;;;35.40;31.32;100336.15;102428;280;98533;-57
2023/06/16 06:41:08;;;;;;;5.40;4.90;;;;;;;34.92;30.75;100344.02;102460;280;119368;-59
2023/06/16 06:43:43;;;;;;;6.10;5.00;;;;;;;34.73;31.39;100342.79;102485;280;104314;-57
2023/06/16 06:46:25;;;;;;;6.20;4.90;;;;;;;35.15;30.96;100345.73;102268;280;116069;-60
2023/06/16 06:49:09;;;;;;;5.80;5.30;;;;;;;35.68;29.92;100335.46;102456;280;92276;-60
2023/06/16 06:51:52;;;;;;;5.40;4.90;;;;;;;35.81;29.29;100335.26;102473;280;97647;-60
2023/06/16 06:54:25;;;;;;;5.70;5.20;;;;;;;36.69;29.40;100337.44;102388;280;120333;-59
2023/06/16 06:57:02;;;;;;;5.10;4.70;;;;;;;36.85;29.10;100341.61;102476;280;104311;-58
2023/06/16 06:59:34;;;;;;;5.40;4.90;;;;;;;37.39;28.82;100342.30;102379;280;114890;-60
2023/06/16 07:02:08;;;;;;;4.80;4.40;;;;;;;37.09;28.22;100342.02;102411;280;95127;-66
2023/06/16 07:04:43;;;;;;;5.50;4.90;;;;;;;36.44;28.46;100343.08;102378;280;96101;-68
2023/06/16 07:07:17;;;;;;;5.50;4.80;;;;;;;36.05;28.09;100345.75;102416;280;120595;-59
2023/06/16 07:09:56;;;;;;;4.50;4.10;;;;;;;35.65;28.70;100346.14;102364;280;104116;-57
2023/06/16 07:12:31;;;;;;;5.00;4.40;;;;;;;35.31;28.33;100351.15;102436;280;114435;-57
2023/06/16 07:15:08;;;;;;;4.80;4.40;;;;;;;35.31;27.98;100347.12;102403;280;94805;-56
2023/06/16 07:17:47;;;;;;;5.50;4.20;;;;;;;35.47;28.31;100346.16;102397;268;97800;-58
2023/06/16 07:20:21;;;;;;;4.60;4.10;;;;;;;35.88;28.57;100344.70;102455;280;119476;-58
2023/06/16 07:22:53;;;;;;;5.50;4.40;;;;;;;36.36;28.63;100350.27;102399;279;105148;-57
2023/06/16 07:25:32;;;;;;;5.30;4.70;;;;;;;36.77;27.87;100347.21;102395;280;113888;-59
2023/06/16 07:28:06;;;;;;;4.50;4.10;;;;;;;36.76;27.58;100346.07;102403;280;94937;-60
2023/06/16 07:30:40;;;;;;;4.90;4.10;;;;;;;36.89;27.09;100344.85;102435;280;97428;-59
2023/06/16 07:33:15;;;;;;;4.70;4.10;;;;;;;36.95;26.88;100347.41;102389;280;119818;-60
2023/06/16 07:35:50;;;;;;;4.60;4.10;;;;;;;36.74;26.94;100342.48;102407;280;106049;-58
2023/06/16 07:38:31;;;;;;;5.00;4.60;;;;;;;36.51;26.94;100344.65;102378;280;113173;-57
2023/06/16 07:41:09;;;;;;;4.80;4.30;;;;;;;36.92;26.59;100341.80;102368;280;93332;-57
2023/06/16 07:43:48;;;;;;;4.70;4.30;;;;;;;37.04;26.44;100340.08;102222;281;97204;-57
2023/06/16 07:46:29;;;;;;;4.60;4.20;;;;;;;36.97;26.72;100342.64;102401;280;121724;-59
2023/06/16 07:49:03;;;;;;;4.00;3.60;;;;;;;37.01;26.21;100335.41;102394;280;104954;-58
2023/06/16 07:51:36;;;;;;;5.20;4.20;;;;;;;36.65;25.71;100337.98;102417;280;113686;-57
2023/06/16 07:54:10;;;;;;;4.70;4.10;;;;;;;36.32;26.12;100335.52;102351;280;94296;-57
2023/06/16 07:56:51;;;;;;;5.00;4.20;;;;;;;35.99;26.42;100335.28;102437;280;96128;-60
2023/06/16 07:59:26;;;;;;;4.40;4.00;;;;;;;35.70;26.63;100336.31;102387;280;120126;-60
2023/06/16 08:02:03;;;;;;;5.00;3.70;;;;;;;35.78;26.57;100332.92;102379;280;104434;-58
2023/06/16 08:04:38;;;;;;;5.50;4.10;;;;;;;34.71;26.99;100338.13;102264;280;113000;-58
2023/06/16 08:07:16;;;;;;;4.50;4.10;;;;;;;33.56;27.96;100337.12;102477;280;93804;-57
2023/06/16 08:09:57;;;;;;;4.30;3.90;;;;;;;33.20;28.82;100337.33;102394;280;97527;-62
2023/06/16 08:12:37;;;;;;;4.80;3.50;;;;;;;33.75;28.85;100337.58;102399;280;120068;-60
2023/06/16 08:15:12;;;;;;;5.40;4.00;;;;;;;34.13;28.37;100339.52;102369;280;105115;-60
2023/06/16 08:17:51;;;;;;;5.30;3.80;;;;;;;32.74;28.39;100338.30;102398;280;114759;-60
2023/06/16 08:20:25;;;;;;;4.30;3.80;;;;;;;31.50;30.20;100339.70;102460;280;94533;-60
2023/06/16 08:23:08;;;;;;;5.90;5.30;;;;;;;31.35;30.96;100339.65;102372;280;99101;-57
2023/06/16 08:25:44;;;;;;;5.00;4.30;;;;;;;31.48;30.69;100340.98;102259;280;119827;-59
2023/06/16 08:28:18;;;;;;;5.00;4.50;;;;;;;31.52;31.94;100341.93;102373;280;103219;-60
2023/06/16 08:30:52;;;;;;;4.30;3.80;;;;;;;32.72;31.48;100337.06;102339;280;113413;-60
2023/06/16 08:33:26;;;;;;;4.50;4.10;;;;;;;32.18;30.55;100337.67;102425;280;94349;-61
2023/06/16 08:36:01;;;;;;;4.70;4.00;;;;;;;31.19;31.41;100338.38;102420;280;97509;-60
2023/06/16 08:38:43;;;;;;;4.70;4.10;;;;;;;30.11;32.45;100346.33;102386;280;119985;-60
2023/06/16 08:41:19;;;;;;;4.10;3.80;;;;;;;28.99;33.36;100344.02;102408;280;105620;-61
2023/06/16 08:43:56;;;;;;;5.30;3.70;;;;;;;28.46;33.97;100340.36;102352;280;114243;-61
2023/06/16 08:46:39;;;;;;;4.70;4.30;;;;;;;28.02;34.84;100344.52;102385;280;95120;-60
2023/06/16 08:49:16;;;;;;;;;;;;;;;27.81;35.06;100345.45;102467;280;97806;-60
2023/06/16 08:51:51;;;;;;;6.50;4.80;;;;;;;27.79;35.33;100339.31;102465;280;120458;-60
2023/06/16 08:54:31;;;;;;;5.90;4.20;;;;;;;28.27;35.72;100340.95;102465;276;104243;-60
2023/06/16 08:57:12;;;;;;;6.00;4.60;;;;;;;28.37;35.01;100339.98;102479;280;113182;-60
2023/06/16 08:59:56;;;;;;;5.60;4.10;;;;;;;27.91;35.09;100341.48;102428;280;94308;-61
2023/06/16 09:02:33;;;;;;;;;;;;;;;27.64;35.52;100340.64;102463;280;96357;-59
2023/06/16 09:05:10;;;;;;;4.70;4.20;;;;;;;27.35;36.13;100335.83;102428;280;119666;-59
2023/06/16 09:07:41;;;;;;;4.80;4.30;;;;;;;27.03;36.06;100333.54;102391;280;105441;-60
2023/06/16 09:10:20;;;;;;;4.80;4.30;;;;;;;26.80;36.16;100334.55;102416;280;114400;-60
2023/06/16 09:13:03;;;;;;;5.80;4.00;;;;;;;26.63;36.40;100335.66;102370;280;94666;-61
2023/06/16 09:15:46;;;;;;;7.90;4.50;;;;;;;26.44;36.68;100342.55;102357;280;97514;-61
2023/06/16 09:18:24;;;;;;;8.50;4.90;;;;;;;26.29;36.95;100337.56;102371;280;120825;-60
2023/06/16 09:21:05;;;;;;;5.20;4.70;;;;;;;26.30;37.16;100332.23;102385;280;105695;-59
2023/06/16 09:23:42;;;;;;;5.20;4.00;;;;;;;26.50;38.02;100332.00;102390;280;113052;-61
2023/06/16 09:26:24;;;;;;;4.50;4.10;;;;;;;26.95;37.45;100327.16;102431;280;94205;-59
2023/06/16 09:29:20;;;;;;;8.30;4.60;;;;;;;27.33;37.23;100327.56;102445;280;98050;-59
2023/06/16 09:32:07;;;;;;;4.40;4.00;;;;;;;27.28;37.31;100326.98;102308;280;120801;-60
2023/06/16 09:34:43;;;;;;;4.80;4.30;;;;;;;27.53;37.24;100325.44;102393;280;104145;-61
2023/06/16 09:37:20;;;;;;;5.20;4.00;;;;;;;27.72;37.70;100318.86;102442;280;113809;-61
2023/06/16 09:39:52;;;;;;;6.20;4.70;;;;;;;27.63;38.09;100316.52;102369;280;95577;-60
2023/06/16 09:42:29;;;;;;;4.30;3.90;;;;;;;27.59;38.03;100316.48;102274;282;96901;-58
2023/06/16 09:45:10;;;;;;;5.50;4.50;;;;;;;27.57;37.77;100311.62;102396;280;121100;-63
2023/06/16 09:47:46;;;;;;;4.00;3.60;;;;;;;27.95;37.36;100308.65;102397;280;104732;-59
2023/06/16 09:50:23;;;;;;;6.30;3.80;;;;;;;28.29;37.22;100306.02;102441;280;113419;-60
2023/06/16 09:52:57;;;;;;;4.80;4.30;;;;;;;28.70;36.90;100303.02;102416;280;93815;-60
2023/06/16 09:55:42;;;;;;;5.70;4.20;;;;;;;28.96;36.83;100298.68;102453;280;96126;-60
2023/06/16 09:58:21;;;;;;;4.50;4.10;;;;;;;28.96;35.99;100298.75;102416;280;122238;-60
2023/06/16 10:00:58;;;;;;;6.80;4.00;;;;;;;28.77;35.53;100297.86;102405;280;106096;-59
2023/06/16 10:03:32;;;;;;;5.20;4.70;;;;;;;29.00;35.72;100296.17;102449;280;113820;-59
2023/06/16 10:06:09;;;;;;;6.10;5.00;;;;;;;29.29;35.14;100296.64;102468;280;93685;-59
2023/06/16 10:08:51;;;;;;;5.30;4.20;;;;;;;29.27;34.57;100299.98;102425;280;98519;-59
2023/06/16 10:11:32;;;;;;;5.00;4.30;;;;;;;29.27;34.53;100296.80;102404;280;120386;-60
2023/06/16 10:14:10;;;;;;;5.40;4.20;;;;;;;29.07;34.64;100295.05;102412;280;105384;-61
2023/06/16 10:16:50;;;;;;;5.30;4.60;;;;;;;28.82;34.38;100293.67;102395;280;113362;-61
2023/06/16 10:19:31;;;;;;;5.40;4.80;;;;;;;28.97;34.37;100288.14;102354;280;94309;-60
2023/06/16 10:22:06;;;;;;;4.40;4.00;;;;;;;29.19;33.94;100289.90;102408;280;96594;-60
2023/06/16 10:24:47;;;;;;;5.30;4.20;;;;;;;29.16;33.64;100284.93;102377;280;120869;-60
2023/06/16 10:27:20;;;;;;;5.90;4.80;;;;;;;29.18;33.58;100282.02;102425;280;106377;-60
2023/06/16 10:29:54;;;;;;;6.50;4.90;;;;;;;29.27;33.54;100278.71;102348;280;113981;-60
2023/06/16 10:32:25;;;;;;;;;;;;;;;29.43;33.92;100279.95;102437;280;94119;-60
2023/06/16 10:35:00;;;;;;;5.70;5.00;;;;;;;29.58;33.92;100276.16;102462;280;98365;-60
2023/06/16 10:37:35;;;;;;;5.40;4.60;;;;;;;29.61;33.86;100277.41;102449;280;120750;-60
2023/06/16 10:40:14;;;;;;;4.90;4.30;;;;;;;29.49;33.78;100275.21;102423;280;105026;-60
2023/06/16 10:42:51;;;;;;;5.70;4.40;;;;;;;29.54;34.37;100272.58;102402;280;113823;-60
2023/06/16 10:45:28;;;;;;;4.70;4.10;;;;;;;29.67;34.22;100270.77;102446;280;93358;-60
2023/06/16 10:48:10;;;;;;;6.30;4.60;;;;;;;29.74;34.12;100273.40;102263;280;96678;-60
2023/06/16 10:50:44;;;;;;;4.80;4.10;;;;;;;29.99;34.08;100266.50;102374;280;120614;-60
2023/06/16 10:53:25;;;;;;;;;;;;;;;30.18;33.89;100264.22;102325;281;107045;-61
2023/06/16 10:56:09;;;;;;;9.90;5.20;;;;;;;30.29;33.64;100264.12;102412;280;113664;-61
2023/06/16 10:58:43;;;;;;;;;;;;;;;30.21;33.29;100264.20;102402;280;94656;-61
2023/06/16 11:01:48;;;;;;;6.50;5.60;;;;;;;29.81;33.14;100261.90;102423;280;96321;-61
2023/06/16 11:04:26;;;;;;;6.10;5.20;;;;;;;29.66;33.52;100261.85;102429;280;120566;-60
2023/06/16 11:07:13;;;;;;;6.40;5.40;;;;;;;29.49;33.34;100261.81;102426;280;104380;-61
2023/06/16 11:09:45;;;;;;;6.10;5.50;;;;;;;29.30;33.58;100261.95;102234;280;112569;-62
2023/06/16 11:12:23;;;;;;;5.80;5.30;;;;;;;29.21;33.68;100260.71;102381;280;93829;-62
2023/06/16 11:15:05;;;;;;;5.50;5.00;;;;;;;29.24;33.78;100256.31;102383;280;97836;-61
2023/06/16 11:17:37;;;;;;;6.00;5.00;;;;;;;29.29;33.74;100256.08;100679;282;2151977;-62
2023/06/16 11:20:13;;;;;;;7.10;5.30;;;;;;;29.15;33.87;100256.27;102373;280;106435;-63
2023/06/16 11:22:59;;;;;;;7.20;5.80;;;;;;;29.24;34.14;100255.36;102442;280;114717;-61
2023/06/16 11:25:37;;;;;;;6.40;5.80;;;;;;;29.26;33.63;100257.88;102243;280;94002;-62
2023/06/16 11:28:13;;;;;;;5.80;5.20;;;;;;;28.94;33.78;100254.69;102444;280;96391;-61
2023/06/16 11:30:45;;;;;;;6.10;5.30;;;;;;;28.88;33.93;100250.64;102444;280;119650;-61
2023/06/16 11:33:21;;;;;;;6.80;5.20;;;;;;;28.80;33.82;100247.40;102378;280;105259;-61
2023/06/16 11:35:57;;;;;;;6.90;5.70;;;;;;;28.71;33.57;100244.38;102378;280;114147;-61
2023/06/16 11:38:32;;;;;;;6.20;5.60;;;;;;;28.49;34.05;100242.56;102421;280;92473;-61
2023/06/16 11:41:14;;;;;;;6.40;5.50;;;;;;;28.55;34.42;100240.04;102407;280;96633;-63
2023/06/16 11:43:48;;;;;;;5.90;5.40;;;;;;;28.51;34.00;100238.23;102383;280;120447;-63
2023/06/16 11:46:26;;;;;;;6.60;5.50;;;;;;;28.29;33.89;100233.73;102408;280;105815;-61
2023/06/16 11:49:01;;;;;;;6.80;6.10;;;;;;;28.25;34.23;100231.19;102381;280;115127;-62
2023/06/16 11:51:40;;;;;;;7.90;5.60;;;;;;;28.24;34.49;100235.42;102458;280;94146;-62
2023/06/16 11:54:14;;;;;;;6.60;5.90;;;;;;;28.09;34.38;100235.85;102438;280;97242;-62
2023/06/16 11:56:51;;;;;;;6.70;6.00;;;;;;;27.80;34.21;100232.73;102469;280;119974;-61
2023/06/16 11:59:28;;;;;;;8.00;5.40;;;;;;;27.74;34.56;100226.58;102450;280;103939;-61
2023/06/16 12:02:08;;;;;;;6.00;5.40;;;;;;;27.78;34.88;100231.56;102238;280;114978;-63
2023/06/16 12:04:43;;;;;;;6.80;5.70;;;;;;;27.81;34.78;100225.50;102421;280;92745;-62